createdAt,value
2022-07-29T00:02:20.870Z,2.75
2022-07-29T00:06:13.369Z,2.92
2022-07-29T00:10:06.393Z,2.67
2022-07-29T00:13:59.387Z,3.00
2022-07-29T00:17:52.069Z,2.97
2022-07-29T00:21:44.586Z,2.70
2022-07-29T00:25:37.240Z,2.50
2022-07-29T00:29:34.395Z,2.58
2022-07-29T00:33:27.546Z,2.75
2022-07-29T00:37:20.090Z,2.60
2022-07-29T00:41:13.227Z,2.50
2022-07-29T00:45:06.221Z,2.70
2022-07-29T00:48:58.961Z,2.70
2022-07-29T00:52:52.182Z,2.65
2022-07-29T00:56:45.318Z,2.70
2022-07-29T01:00:38.171Z,2.65
2022-07-29T01:04:32.343Z,2.70
2022-07-29T01:08:24.950Z,2.65
2022-07-29T01:12:25.593Z,3.00
2022-07-29T01:16:33.382Z,2.67
2022-07-29T01:20:44.306Z,2.97
2022-07-29T01:25:08.037Z,2.60
2022-07-29T01:29:35.815Z,2.80
2022-07-29T01:33:49.834Z,2.75
2022-07-29T01:37:48.145Z,2.67
2022-07-29T01:41:49.250Z,2.88
2022-07-29T01:45:46.381Z,2.80
2022-07-29T01:53:39.972Z,3.00
2022-07-29T01:57:35.119Z,2.50
2022-07-29T02:01:28.565Z,2.80
2022-07-29T02:05:24.530Z,2.90
2022-07-29T02:09:18.953Z,2.90
2022-07-29T02:13:13.573Z,2.92
2022-07-29T02:17:06.389Z,3.78
2022-07-29T02:21:00.623Z,3.10
2022-07-29T02:24:54.892Z,2.60
2022-07-29T02:28:49.569Z,2.80
2022-07-29T02:32:43.971Z,3.10
2022-07-29T02:36:40.706Z,3.15
2022-07-29T02:40:37.229Z,2.78
2022-07-29T02:44:34.542Z,2.75
2022-07-29T02:48:39.970Z,3.00
2022-07-29T02:53:04.670Z,3.25
2022-07-29T02:57:01.980Z,2.80
2022-07-29T03:00:55.065Z,3.17
2022-07-29T03:04:50.335Z,2.63
2022-07-29T03:08:44.908Z,3.10
2022-07-29T03:12:37.957Z,3.30
2022-07-29T03:16:31.137Z,3.45
2022-07-29T03:20:24.448Z,2.90
2022-07-29T03:24:26.592Z,3.30
2022-07-29T03:28:19.308Z,3.20
2022-07-29T03:32:12.374Z,3.30
2022-07-29T03:36:05.128Z,3.00
2022-07-29T03:39:59.253Z,3.28
2022-07-29T03:43:53.033Z,2.90
2022-07-29T03:47:55.812Z,3.22
2022-07-29T03:51:49.827Z,3.30
2022-07-29T03:55:45.955Z,2.85
2022-07-29T03:59:39.683Z,3.00
2022-07-29T04:03:32.421Z,3.00
2022-07-29T04:07:24.947Z,3.22
2022-07-29T04:11:17.499Z,3.05
2022-07-29T04:15:10.736Z,3.45
2022-07-29T04:19:03.467Z,2.90
2022-07-29T04:22:56.136Z,3.13
2022-07-29T04:26:49.395Z,3.65
2022-07-29T04:30:41.941Z,3.22
2022-07-29T04:34:34.542Z,3.10
2022-07-29T04:38:27.147Z,3.35
2022-07-29T04:42:27.496Z,2.63
2022-07-29T04:46:20.625Z,3.17
2022-07-29T04:50:13.194Z,2.92
2022-07-29T04:54:05.854Z,2.90
2022-07-29T04:57:58.492Z,3.08
2022-07-29T05:01:51.483Z,3.00
2022-07-29T05:05:44.243Z,3.30
2022-07-29T05:09:36.859Z,2.97
2022-07-29T05:13:29.457Z,2.97
2022-07-29T05:17:39.083Z,3.03
2022-07-29T05:21:31.747Z,2.97
2022-07-29T05:25:40.783Z,3.05
2022-07-29T05:29:43.005Z,3.20
2022-07-29T05:33:38.420Z,3.15
2022-07-29T05:37:31.128Z,3.17
2022-07-29T05:41:23.845Z,3.22
2022-07-29T05:45:16.735Z,3.30
2022-07-29T05:49:10.126Z,3.13
2022-07-29T05:53:19.074Z,3.00
2022-07-29T05:57:18.145Z,3.17
2022-07-29T06:01:10.873Z,3.33
2022-07-29T06:05:03.777Z,3.03
2022-07-29T06:08:56.742Z,3.00
2022-07-29T06:12:49.420Z,3.20
2022-07-29T06:16:42.411Z,2.78
2022-07-29T06:20:35.729Z,3.33
2022-07-29T06:24:28.640Z,3.10
2022-07-29T06:28:21.407Z,2.88
2022-07-29T06:32:14.241Z,2.85
2022-07-29T06:36:07.614Z,3.13
2022-07-29T06:40:19.605Z,3.47
2022-07-29T06:44:14.401Z,3.20
2022-07-29T06:48:08.430Z,3.20
2022-07-29T06:52:01.492Z,3.00
2022-07-29T06:55:54.294Z,2.90
2022-07-29T06:59:47.030Z,3.00
2022-07-29T07:03:39.783Z,2.92
2022-07-29T07:07:34.245Z,3.00
2022-07-29T07:11:28.797Z,3.08
2022-07-29T07:15:23.135Z,3.00
2022-07-29T07:19:33.503Z,3.20
2022-07-29T07:23:27.218Z,3.10
2022-07-29T07:27:22.916Z,2.88
2022-07-29T07:31:15.955Z,2.80
2022-07-29T07:35:10.746Z,3.08
2022-07-29T07:39:04.612Z,2.67
2022-07-29T07:42:57.366Z,3.25
2022-07-29T07:46:50.478Z,3.40
2022-07-29T07:50:47.632Z,3.30
2022-07-29T07:54:42.299Z,3.53
2022-07-29T07:58:39.833Z,3.00
2022-07-29T08:02:34.124Z,3.20
2022-07-29T08:06:28.822Z,3.05
2022-07-29T08:15:10.856Z,3.08
2022-07-29T08:19:10.979Z,3.20
2022-07-29T08:27:12.854Z,3.83
2022-07-29T08:31:19.039Z,3.30
2022-07-29T08:35:12.005Z,2.90
2022-07-29T08:39:04.872Z,3.13
2022-07-29T08:42:57.385Z,3.17
2022-07-29T08:46:52.050Z,3.20
2022-07-29T08:50:46.437Z,3.20
2022-07-29T08:54:44.248Z,3.05
2022-07-29T08:58:38.320Z,3.38
2022-07-29T09:02:36.800Z,3.08
2022-07-29T09:06:34.286Z,3.25
2022-07-29T09:10:26.763Z,3.13
2022-07-29T09:14:19.237Z,3.45
2022-07-29T09:18:28.944Z,3.15
2022-07-29T09:22:31.430Z,2.90
2022-07-29T09:26:29.836Z,2.83
2022-07-29T09:30:28.827Z,3.40
2022-07-29T09:34:29.720Z,3.42
2022-07-29T09:38:22.167Z,2.97
2022-07-29T09:42:16.029Z,3.25
2022-07-29T09:46:13.586Z,3.10
2022-07-29T09:50:06.401Z,3.17
2022-07-29T09:53:58.975Z,3.72
2022-07-29T09:57:51.497Z,3.10
2022-07-29T10:01:44.270Z,3.03
2022-07-29T10:05:37.121Z,3.00
2022-07-29T10:09:29.978Z,2.88
2022-07-29T10:13:22.562Z,3.38
2022-07-29T10:17:16.540Z,3.30
2022-07-29T10:21:10.401Z,2.95
2022-07-29T10:25:03.349Z,2.85
2022-07-29T10:28:56.843Z,3.05
2022-07-29T10:33:07.976Z,3.08
2022-07-29T10:37:11.565Z,2.72
2022-07-29T10:41:49.816Z,3.17
2022-07-29T10:45:42.282Z,2.95
2022-07-29T10:49:36.388Z,3.13
2022-07-29T10:53:52.068Z,2.88
2022-07-29T10:58:13.189Z,2.90
2022-07-29T11:02:42.250Z,3.03
2022-07-29T11:07:09.072Z,3.00
2022-07-29T11:11:19.768Z,2.65
2022-07-29T11:15:20.154Z,2.80
2022-07-29T11:19:13.155Z,2.63
2022-07-29T11:23:25.900Z,2.90
2022-07-29T11:27:23.368Z,2.72
2022-07-29T11:31:38.022Z,2.60
2022-07-29T11:35:38.297Z,3.50
2022-07-29T11:39:36.678Z,2.90
2022-07-29T11:44:01.876Z,2.50
2022-07-29T11:48:05.390Z,2.75
2022-07-29T11:52:11.825Z,2.70
2022-07-29T11:56:05.342Z,2.55
2022-07-29T12:00:04.515Z,2.65
2022-07-29T12:04:09.363Z,2.33
2022-07-29T12:08:12.566Z,2.72
2022-07-29T12:12:08.054Z,2.50
2022-07-29T12:16:02.334Z,2.28
2022-07-29T12:19:55.868Z,2.60
2022-07-29T12:24:03.395Z,2.33
2022-07-29T12:28:07.874Z,2.50
2022-07-29T12:32:00.706Z,2.53
2022-07-29T12:36:17.434Z,2.38
2022-07-29T12:40:12.359Z,2.35
2022-07-29T12:44:05.229Z,2.30
2022-07-29T12:47:57.814Z,2.42
2022-07-29T12:51:50.334Z,2.20
2022-07-29T12:55:52.603Z,2.30
2022-07-29T12:59:45.145Z,2.25
2022-07-29T13:03:57.332Z,2.50
2022-07-29T13:07:55.778Z,2.70
2022-07-29T13:11:54.540Z,2.30
2022-07-29T13:15:50.188Z,2.45
2022-07-29T13:19:54.098Z,2.58
2022-07-29T13:23:46.513Z,2.50
2022-07-29T13:27:40.760Z,2.28
2022-07-29T13:31:33.953Z,2.63
2022-07-29T13:35:26.447Z,2.50
2022-07-29T13:39:18.911Z,2.47
2022-07-29T13:43:11.839Z,2.60
2022-07-29T13:47:04.351Z,2.90
2022-07-29T13:50:57.746Z,2.92
2022-07-29T13:54:50.259Z,2.90
2022-07-29T13:58:42.836Z,3.10
2022-07-29T14:02:35.574Z,2.58
2022-07-29T14:06:28.352Z,2.83
2022-07-29T14:10:22.717Z,3.00
2022-07-29T14:14:15.290Z,2.58
2022-07-29T14:18:07.957Z,3.00
2022-07-29T14:22:01.037Z,2.50
2022-07-29T14:25:55.572Z,2.63
2022-07-29T14:29:49.046Z,2.40
2022-07-29T14:33:41.865Z,2.90
2022-07-29T14:37:39.879Z,2.55
2022-07-29T14:41:33.307Z,2.70
2022-07-29T14:45:26.572Z,2.55
2022-07-29T14:49:18.993Z,2.33
2022-07-29T14:53:13.119Z,2.95
2022-07-29T14:57:05.986Z,2.45
2022-07-29T15:00:58.730Z,2.50
2022-07-29T15:04:51.485Z,2.30
2022-07-29T15:08:44.070Z,2.63
2022-07-29T15:12:36.839Z,2.45
2022-07-29T15:16:29.476Z,2.67
2022-07-29T15:20:22.513Z,2.67
2022-07-29T15:24:15.148Z,2.80
2022-07-29T15:28:08.640Z,2.70
2022-07-29T15:32:01.751Z,2.80
2022-07-29T15:35:56.726Z,2.53
2022-07-29T15:39:50.563Z,2.40
2022-07-29T15:43:45.471Z,2.55
2022-07-29T15:47:37.945Z,2.72
2022-07-29T15:51:30.635Z,2.53
2022-07-29T15:55:24.489Z,2.80
2022-07-29T15:59:22.346Z,2.40
2022-07-29T16:03:16.327Z,2.55
2022-07-29T16:07:08.988Z,2.60
2022-07-29T16:11:02.083Z,2.70
2022-07-29T16:14:54.697Z,2.47
2022-07-29T16:18:47.679Z,2.80
2022-07-29T16:22:40.304Z,2.53
2022-07-29T16:26:39.678Z,2.70
2022-07-29T16:30:32.793Z,2.28
2022-07-29T16:34:25.297Z,2.60
2022-07-29T16:38:17.880Z,2.60
2022-07-29T16:42:21.253Z,2.40
2022-07-29T16:46:24.314Z,2.65
2022-07-29T16:50:18.396Z,2.60
2022-07-29T16:54:11.104Z,2.83
2022-07-29T16:58:03.844Z,2.53
2022-07-29T17:01:56.895Z,2.78
2022-07-29T17:05:52.526Z,2.95
2022-07-29T17:09:46.968Z,2.70
2022-07-29T17:13:39.558Z,2.63
2022-07-29T17:17:39.115Z,2.78
2022-07-29T17:21:48.783Z,3.00
2022-07-29T17:25:41.952Z,2.92
2022-07-29T17:29:35.430Z,3.00
2022-07-29T17:33:28.034Z,2.60
2022-07-29T17:37:20.767Z,2.92
2022-07-29T17:41:13.837Z,3.00
2022-07-29T17:45:06.853Z,2.78
2022-07-29T17:48:59.745Z,3.10
2022-07-29T17:52:52.443Z,2.88
2022-07-29T17:56:45.179Z,2.92
2022-07-29T18:00:38.172Z,2.75
2022-07-29T18:04:31.786Z,2.80
2022-07-29T18:08:24.640Z,2.97
2022-07-29T18:12:17.096Z,2.65
2022-07-29T18:16:11.144Z,2.92
2022-07-29T18:20:05.145Z,2.53
2022-07-29T18:23:58.244Z,2.90
2022-07-29T18:27:50.939Z,2.60
2022-07-29T18:31:43.748Z,3.00
2022-07-29T18:35:36.323Z,3.28
2022-07-29T18:39:29.024Z,3.08
2022-07-29T18:43:21.572Z,2.78
2022-07-29T18:47:14.024Z,2.75
2022-07-29T18:51:09.376Z,3.08
2022-07-29T18:55:05.425Z,3.42
2022-07-29T18:58:58.608Z,2.85
2022-07-29T19:02:51.643Z,2.78
2022-07-29T19:06:44.726Z,2.70
2022-07-29T19:10:37.410Z,2.72
2022-07-29T19:14:30.063Z,3.00
2022-07-29T19:18:22.776Z,3.28
2022-07-29T19:22:15.347Z,3.20
2022-07-29T19:26:08.440Z,3.35
2022-07-29T19:30:03.498Z,3.40
2022-07-29T19:33:56.277Z,3.40
2022-07-29T19:37:48.879Z,3.15
2022-07-29T19:41:41.472Z,2.80
2022-07-29T19:45:34.158Z,3.38
2022-07-29T19:49:27.109Z,3.15
2022-07-29T19:53:19.999Z,2.88
2022-07-29T19:57:12.539Z,3.70
2022-07-29T20:01:10.550Z,4.50
2022-07-29T20:08:58.707Z,3.10
2022-07-29T20:12:53.737Z,3.75
2022-07-29T20:16:47.748Z,3.73
2022-07-29T20:20:40.674Z,3.60
2022-07-29T20:24:33.360Z,3.83
2022-07-29T20:28:26.022Z,3.53
2022-07-29T20:32:18.685Z,3.47
2022-07-29T20:36:11.273Z,3.55
2022-07-29T20:40:04.709Z,3.10
2022-07-29T20:43:58.088Z,3.28
2022-07-29T20:47:52.003Z,3.13
2022-07-29T20:51:44.647Z,3.10
2022-07-29T20:55:37.230Z,3.20
2022-07-29T20:59:29.955Z,3.00
2022-07-29T21:03:22.570Z,3.08
2022-07-29T21:07:15.376Z,3.40
2022-07-29T21:11:08.809Z,3.40
2022-07-29T21:15:05.913Z,3.20
2022-07-29T21:19:00.270Z,3.05
2022-07-29T21:22:55.636Z,3.13
2022-07-29T21:27:11.024Z,3.20
2022-07-29T21:31:02.322Z,3.42
2022-07-29T21:34:54.865Z,3.40
2022-07-29T21:38:47.570Z,2.97
2022-07-29T21:42:40.355Z,3.28
2022-07-29T21:46:33.204Z,3.38
2022-07-29T21:50:26.564Z,3.15
2022-07-29T21:54:19.190Z,3.00
2022-07-29T21:58:17.781Z,3.40
2022-07-29T22:02:10.458Z,3.20
2022-07-29T22:06:03.084Z,3.00
2022-07-29T22:09:55.611Z,3.47
2022-07-29T22:13:48.077Z,3.33
2022-07-29T22:17:40.506Z,3.25
2022-07-29T22:21:33.231Z,3.10
2022-07-29T22:25:25.900Z,3.22
2022-07-29T22:29:19.242Z,3.08
2022-07-29T22:33:16.907Z,3.08
2022-07-29T22:37:10.601Z,2.85
2022-07-29T22:41:04.305Z,3.05
2022-07-29T22:44:56.862Z,2.85
2022-07-29T22:48:49.424Z,2.97
2022-07-29T22:52:42.141Z,2.95
2022-07-29T22:56:34.785Z,3.33
2022-07-29T23:00:27.682Z,3.30
2022-07-29T23:04:23.918Z,3.10
2022-07-29T23:08:16.604Z,3.10
2022-07-29T23:12:09.553Z,3.00
2022-07-29T23:16:02.073Z,3.00
2022-07-29T23:19:54.763Z,3.08
2022-07-29T23:23:48.658Z,2.88
2022-07-29T23:27:41.354Z,2.83
2022-07-29T23:31:34.946Z,3.10
2022-07-29T23:35:34.476Z,3.10
2022-07-29T23:39:27.112Z,3.17
2022-07-29T23:43:19.662Z,3.10
2022-07-29T23:47:12.226Z,3.05
2022-07-29T23:51:04.979Z,3.00
2022-07-29T23:55:37.666Z,3.20
2022-07-29T23:59:10.198Z,2.97
